Flight Number: EUR2047 Duration: 6:00
Departure: Munich Int'l (EDDM) at 08:00 Distance: 2467 Nm
Arrival: Dubai Int'l (OMDB) at 14:00 Equipment: A340

Weather Information
Munchen, Germany (EDDM) 48-21N 011-47E Aug 17, 2018 - 04:50 PM EDT / 2018.08.17 2050 UTC
Wind: from the E (090 degrees) at 3 MPH (3 KT):0
Visibility: greater than 7 mile(s):0 Temperature: 60 F (16 C) Dew Point: 57 F (14 C) Relative Humidity: 87% Pressure (altimeter): 30.03 in. Hg (1017 hPa)
ob: EDDM 172050Z 09003KT CAVOK 16/14 Q1017 NOSIG cycle: 21
Sunrise: 04:14 Sunset: 18:19 (UTC)

Dubai International Airport, United Arab Emirates (OMDB) 25-15N 055-20E 5M Aug 17, 2018 - 05:00 PM EDT / 2018.08.17 2100 UTC
Wind: from the NNW (340 degrees) at 7 MPH (6 KT) (direction variable):0
Visibility: 3 mile(s):0 Temperature: 91 F (33 C) Heat index: 120.7 F (49.3 C):1 Dew Point: 86 F (30 C) Relative Humidity: 84% Pressure (altimeter): 29.41 in. Hg (0996 hPa)
ob: OMDB 172100Z 34006KT 310V020 6000 NSC 33/30 Q0996 NOSIG cycle: 21
Sunrise: 01:55 Sunset: 14:49 (UTC)

TAF:2018/08/17 18:03 TAF OMDB 171655Z 1718/1900 33010KT 7000 NSC BECMG 1719/1721 08005KT PROB30 1801/1804 4000 HZ BECMG 1803/1805 18010KT BECMG 1807/1809 32012KT BECMG 1816/1818 03005KT

Previous Pireps for this route
Date Aircraft Flight time Fuel used Landing rate On time
2012-08-13A3405.45730000Yes
2012-10-06A34005.4895165-748Yes
2012-10-28A3406.001250000No
2012-12-08A34005.42149767-228Yes
2013-02-01A3405.301821000No
2013-02-28A3406.08100900No
2013-03-26A34005.2699508-228Yes
2013-04-08B73705.4731128-130Charter
2013-05-31A34006.06101633-552Yes
2014-04-01A34005.56102065-410Yes
2014-06-29A3405.44918400No
2015-01-31A34005.2286794-158No
2015-03-25B74705.39125580-261Charter
2015-05-01A34005.33120903-69Yes
2015-05-27B74705.59119407-102Charter
2015-08-06A34005.2682535-84Yes
2015-08-26A34005.2183745-190Yes
2016-06-08B77705.4990055-508.46Yes
2018-02-24B77705.55280469-484Charter
(pireps marked green are flown by you)

Route map